Time;durP1;ratioP1;P1;durP2;ratioP2;P2;SDS_P1;SDS_P2;PMS_P1;PMS_P2;Temp;Humidity;BMP_temperature;BMP_pressure;BME280_temperature;BME280_humidity;BME280_pressure;Samples;Min_cycle;Max_cycle;Signal;HPM_P1;HPM_P2
2024/04/20 00:02:08;;;;;;;7.20;2.47;;;6.00;99.90;;;;;;7379872;19;20011;-60
2024/04/20 00:04:34;;;;;;;7.60;2.70;;;6.00;99.90;;;;;;7382900;19;20022;-61
2024/04/20 00:07:00;;;;;;;8.57;2.45;;;5.90;99.90;;;;;;7380045;19;20026;-60
2024/04/20 00:09:26;;;;;;;6.72;2.60;;;5.90;99.90;;;;;;7380384;19;20021;-61
2024/04/20 00:11:53;;;;;;;12.18;2.78;;;5.90;99.90;;;;;;7380477;19;20033;-61
2024/04/20 00:14:19;;;;;;;5.68;2.13;;;5.80;99.90;;;;;;7382208;19;20374;-60
2024/04/20 00:16:47;;;;;;;6.05;2.47;;;5.80;99.90;;;;;;7379736;19;20074;-61
2024/04/20 00:19:13;;;;;;;10.35;3.50;;;5.80;99.90;;;;;;7377192;19;20455;-61
2024/04/20 00:21:39;;;;;;;10.40;2.88;;;5.80;99.90;;;;;;7378791;19;20101;-60
2024/04/20 00:24:06;;;;;;;13.68;3.38;;;5.80;99.90;;;;;;7378808;19;20031;-61
2024/04/20 00:26:33;;;;;;;8.98;2.47;;;5.70;99.90;;;;;;7380325;19;20828;-60
2024/04/20 00:28:59;;;;;;;14.27;3.17;;;5.60;99.90;;;;;;7376919;19;20605;-61
2024/04/20 00:31:25;;;;;;;7.10;2.65;;;5.60;99.90;;;;;;7380906;19;20028;-61
2024/04/20 00:33:52;;;;;;;11.25;3.13;;;5.60;99.90;;;;;;7377148;19;20023;-61
2024/04/20 00:36:18;;;;;;;7.63;3.10;;;5.60;99.90;;;;;;7381360;19;20082;-60
2024/04/20 00:38:44;;;;;;;8.23;3.97;;;5.60;99.90;;;;;;7379610;19;20483;-60
2024/04/20 00:41:12;;;;;;;8.93;3.17;;;5.50;99.90;;;;;;7377769;19;20074;-61
2024/04/20 00:43:39;;;;;;;8.63;2.53;;;5.50;99.90;;;;;;7379414;19;20027;-62
2024/04/20 00:46:07;;;;;;;7.07;2.72;;;5.50;99.90;;;;;;7379013;19;20363;-60
2024/04/20 00:48:33;;;;;;;9.88;2.97;;;5.50;99.90;;;;;;7369124;19;20018;-61
2024/04/20 00:50:59;;;;;;;6.93;2.63;;;5.50;99.90;;;;;;7378469;19;20574;-61
2024/04/20 00:53:27;;;;;;;8.85;2.78;;;5.60;99.90;;;;;;7378773;19;20022;-61
2024/04/20 00:55:54;;;;;;;8.90;2.72;;;5.60;99.90;;;;;;7375621;19;20371;-61
2024/04/20 00:58:21;;;;;;;8.45;2.38;;;5.70;99.90;;;;;;7375662;19;20529;-60
2024/04/20 01:00:48;;;;;;;5.55;2.08;;;5.70;99.90;;;;;;7379997;19;20029;-61
2024/04/20 01:03:14;;;;;;;5.90;2.50;;;5.70;99.90;;;;;;7377194;19;20774;-61
2024/04/20 01:05:41;;;;;;;11.98;2.65;;;5.70;99.90;;;;;;7380824;19;20015;-61
2024/04/20 01:08:08;;;;;;;6.85;1.98;;;5.70;99.90;;;;;;7379268;19;20023;-61
2024/04/20 01:10:55;;;;;;;9.35;2.03;;;5.70;99.90;;;;;;7379246;19;20021;-60
2024/04/20 01:13:28;;;;;;;5.88;1.85;;;5.70;99.90;;;;;;7373129;19;20022;-61
2024/04/20 01:15:55;;;;;;;6.70;2.20;;;5.60;99.90;;;;;;7380242;19;20019;-61
2024/04/20 01:18:21;;;;;;;4.60;1.70;;;5.60;99.90;;;;;;7377528;19;20022;-61
2024/04/20 01:20:47;;;;;;;8.25;2.10;;;5.60;99.90;;;;;;7378914;19;20021;-61
2024/04/20 01:23:14;;;;;;;5.90;2.03;;;5.50;99.90;;;;;;7377170;19;20786;-60
2024/04/20 01:25:46;;;;;;;10.20;2.40;;;5.50;99.90;;;;;;7374115;19;20014;-60
2024/04/20 01:28:12;;;;;;;9.18;2.17;;;5.60;99.90;;;;;;7380110;19;20046;-60
2024/04/20 01:30:38;;;;;;;9.00;2.47;;;5.70;99.90;;;;;;7378346;19;20014;-60
2024/04/20 01:33:08;;;;;;;7.15;2.00;;;5.80;99.90;;;;;;7379330;19;20026;-61
2024/04/20 01:35:34;;;;;;;6.53;2.20;;;5.80;99.90;;;;;;7377555;19;20074;-61
2024/04/20 01:38:00;;;;;;;10.00;2.15;;;5.80;99.90;;;;;;7375959;19;20022;-61
2024/04/20 01:40:27;;;;;;;6.63;1.60;;;5.90;99.90;;;;;;7377943;19;20022;-61
2024/04/20 01:42:53;;;;;;;6.13;1.83;;;5.90;99.90;;;;;;7371762;19;20039;-61
2024/04/20 01:45:19;;;;;;;7.03;1.92;;;5.90;99.90;;;;;;7376503;19;20946;-61
2024/04/20 01:47:45;;;;;;;5.00;2.15;;;5.90;99.90;;;;;;7374993;19;20022;-62
2024/04/20 01:50:12;;;;;;;4.72;1.90;;;5.90;99.90;;;;;;7376871;19;20023;-61
2024/04/20 01:52:40;;;;;;;10.27;2.22;;;5.90;99.90;;;;;;7377477;19;20030;-61
2024/04/20 01:55:06;;;;;;;4.93;1.85;;;5.90;99.90;;;;;;7377215;19;20018;-61
2024/04/20 01:57:32;;;;;;;6.32;1.77;;;5.90;99.90;;;;;;7373426;19;20029;-62
2024/04/20 01:59:59;;;;;;;7.07;2.05;;;5.90;99.90;;;;;;7376040;19;20076;-61
2024/04/20 02:02:25;;;;;;;5.15;1.90;;;5.90;99.90;;;;;;7379080;19;20038;-61
2024/04/20 02:04:52;;;;;;;9.20;2.47;;;6.00;99.90;;;;;;7374388;19;20623;-61
2024/04/20 02:07:18;;;;;;;8.20;2.03;;;6.00;99.90;;;;;;7377101;19;20051;-61
2024/04/20 02:09:44;;;;;;;10.65;2.35;;;6.00;99.90;;;;;;7373711;19;20015;-62
2024/04/20 02:12:11;;;;;;;13.98;2.45;;;6.00;99.90;;;;;;7376581;19;20023;-61
2024/04/20 02:14:37;;;;;;;8.38;2.45;;;6.00;99.90;;;;;;7375442;19;20015;-61
2024/04/20 02:17:04;;;;;;;8.38;2.15;;;6.00;99.90;;;;;;7373843;19;20026;-61
2024/04/20 02:19:30;;;;;;;10.25;2.40;;;6.00;99.90;;;;;;7374320;19;20060;-60
2024/04/20 02:21:57;;;;;;;10.23;2.47;;;6.00;99.90;;;;;;7375628;19;20022;-61
2024/04/20 02:24:23;;;;;;;5.40;2.20;;;6.00;99.90;;;;;;7377268;19;20106;-61
2024/04/20 02:26:49;;;;;;;7.15;2.13;;;6.00;99.90;;;;;;7375495;19;20506;-61
2024/04/20 02:29:15;;;;;;;9.90;2.55;;;6.00;99.90;;;;;;7375728;19;20029;-61
2024/04/20 02:31:42;;;;;;;8.80;2.50;;;6.00;99.90;;;;;;7371435;19;20106;-62
2024/04/20 02:34:08;;;;;;;8.90;2.00;;;6.00;99.90;;;;;;7376643;19;20019;-61
2024/04/20 02:36:34;;;;;;;9.55;2.22;;;5.90;99.90;;;;;;7375748;19;20014;-61
2024/04/20 02:39:03;;;;;;;7.47;2.42;;;5.90;99.90;;;;;;7374040;19;20458;-61
2024/04/20 02:41:30;;;;;;;5.93;1.88;;;5.90;99.90;;;;;;7376731;19;20026;-61
2024/04/20 02:43:56;;;;;;;5.63;1.88;;;5.90;99.90;;;;;;7375862;19;20023;-61
2024/04/20 02:46:22;;;;;;;5.53;1.95;;;5.90;99.90;;;;;;7376312;19;20029;-61
2024/04/20 02:48:48;;;;;;;4.25;1.70;;;5.80;99.90;;;;;;7373688;19;20018;-60
2024/04/20 02:51:15;;;;;;;6.78;1.88;;;5.80;99.90;;;;;;7373508;19;20948;-61
2024/04/20 02:53:41;;;;;;;7.15;2.03;;;5.70;99.90;;;;;;7376778;19;20026;-61
2024/04/20 02:56:07;;;;;;;7.32;1.98;;;5.60;99.90;;;;;;7375849;19;20084;-61
2024/04/20 02:58:35;;;;;;;6.07;2.17;;;5.50;99.90;;;;;;7373421;19;20624;-60
2024/04/20 03:01:04;;;;;;;9.32;2.28;;;5.50;99.90;;;;;;7375912;19;20711;-61
2024/04/20 03:03:32;;;;;;;6.25;2.20;;;5.50;99.90;;;;;;7375863;19;20046;-61
2024/04/20 03:05:59;;;;;;;6.38;2.28;;;5.60;99.90;;;;;;7371389;19;20078;-61
2024/04/20 03:08:45;;;;;;;7.43;2.33;;;5.60;99.90;;;;;;7372465;19;20026;-61
2024/04/20 03:11:11;;;;;;;6.72;2.00;;;5.60;99.90;;;;;;7375605;19;20023;-61
2024/04/20 03:13:38;;;;;;;9.35;2.58;;;5.60;99.90;;;;;;7376755;19;20582;-61
2024/04/20 03:16:04;;;;;;;7.40;2.47;;;5.70;99.90;;;;;;7371659;19;20030;-61
2024/04/20 03:18:35;;;;;;;7.35;2.67;;;5.70;99.90;;;;;;7375002;19;20052;-61
2024/04/20 03:21:02;;;;;;;6.75;2.45;;;5.70;99.90;;;;;;7377269;19;20774;-61
2024/04/20 03:23:28;;;;;;;8.30;2.85;;;5.80;99.90;;;;;;7374704;19;20022;-61
2024/04/20 03:26:15;;;;;;;5.88;2.08;;;5.80;99.90;;;;;;7373245;19;20824;-61
2024/04/20 03:28:41;;;;;;;8.63;1.77;;;5.70;99.90;;;;;;7371353;19;20550;-60
2024/04/20 03:31:07;;;;;;;7.55;1.50;;;5.70;99.90;;;;;;7374788;19;20134;-61
2024/04/20 03:34:00;;;;;;;4.07;1.35;;;5.80;99.90;;;;;;7374786;19;20015;-61
2024/04/20 03:36:26;;;;;;;6.28;1.55;;;5.70;99.90;;;;;;7372872;19;20039;-61
2024/04/20 03:39:16;;;;;;;4.35;1.42;;;5.70;99.90;;;;;;7370672;19;20026;-61
2024/04/20 03:41:44;;;;;;;2.88;1.23;;;5.80;99.90;;;;;;7375823;19;20022;-61
2024/04/20 03:44:13;;;;;;;5.57;1.85;;;5.80;99.90;;;;;;7371042;19;20086;-61
2024/04/20 03:46:40;;;;;;;5.78;1.15;;;5.70;99.90;;;;;;7373643;19;20019;-61
2024/04/20 03:49:07;;;;;;;5.20;1.23;;;5.80;99.90;;;;;;7368918;19;20018;-61
2024/04/20 03:51:33;;;;;;;5.03;1.00;;;5.80;99.90;;;;;;7373763;19;20022;-62
2024/04/20 03:54:10;;;;;;;3.45;0.95;;;5.90;99.90;;;;;;7370731;19;20019;-62
2024/04/20 03:56:36;;;;;;;4.75;1.20;;;5.80;99.90;;;;;;7371212;19;20046;-61
2024/04/20 03:59:22;;;;;;;4.03;1.52;;;5.80;99.90;;;;;;7367485;19;20479;-62
2024/04/20 04:02:09;;;;;;;4.88;1.73;;;5.80;99.90;;;;;;7371298;19;20015;-61
2024/04/20 04:04:56;;;;;;;4.88;1.42;;;5.80;99.90;;;;;;7371669;19;20019;-61
2024/04/20 04:07:42;;;;;;;6.95;1.30;;;5.70;99.90;;;;;;7370860;19;20015;-61
2024/04/20 04:10:28;;;;;;;3.80;1.10;;;5.70;99.90;;;;;;7371655;19;20031;-61
2024/04/20 04:13:16;;;;;;;5.53;1.17;;;5.70;99.90;;;;;;7369593;19;20050;-61
2024/04/20 04:16:03;;;;;;;5.18;1.15;;;5.70;99.90;;;;;;7368359;19;20022;-61
2024/04/20 04:18:50;;;;;;;4.00;1.13;;;5.70;99.90;;;;;;7374712;19;20344;-63
2024/04/20 04:21:36;;;;;;;2.65;0.88;;;5.70;99.90;;;;;;7380068;19;20542;-61
2024/04/20 04:24:23;;;;;;;1.83;0.98;;;5.70;99.90;;;;;;7378630;19;20513;-61
2024/04/20 04:27:15;;;;;;;4.63;1.20;;;5.70;99.90;;;;;;7378519;19;20045;-61
2024/04/20 04:30:01;;;;;;;4.93;0.90;;;5.70;99.90;;;;;;7376343;19;20014;-61
2024/04/20 04:32:47;;;;;;;2.75;1.08;;;5.80;99.90;;;;;;7378683;19;20105;-61
2024/04/20 04:35:33;;;;;;;6.13;1.60;;;5.80;99.90;;;;;;7379372;19;20026;-61
2024/04/20 04:38:20;;;;;;;4.78;1.55;;;5.80;99.90;;;;;;7378016;19;20650;-61
2024/04/20 04:41:06;;;;;;;4.65;0.93;;;5.80;99.90;;;;;;7376890;19;20022;-61
2024/04/20 04:43:52;;;;;;;4.05;1.00;;;5.80;99.90;;;;;;7379413;19;20033;-61
2024/04/20 04:46:38;;;;;;;5.35;1.30;;;5.80;99.90;;;;;;7380172;19;20029;-61
2024/04/20 04:49:24;;;;;;;4.72;1.00;;;5.80;99.90;;;;;;7376499;19;20375;-61
2024/04/20 04:52:11;;;;;;;7.45;1.20;;;5.80;99.90;;;;;;7377755;19;20477;-60
2024/04/20 04:54:58;;;;;;;4.20;1.50;;;5.80;99.90;;;;;;7378399;19;20010;-61
2024/04/20 04:57:44;;;;;;;5.63;1.00;;;5.80;99.90;;;;;;7374857;19;20018;-61
2024/04/20 05:00:30;;;;;;;4.85;1.38;;;5.80;99.90;;;;;;7376628;19;20027;-60
2024/04/20 05:03:17;;;;;;;5.05;0.90;;;5.80;99.90;;;;;;7375687;19;20958;-61
2024/04/20 05:06:03;;;;;;;7.45;1.33;;;5.80;99.90;;;;;;7376663;19;20014;-62
2024/04/20 05:08:49;;;;;;;4.65;1.15;;;5.90;99.90;;;;;;7374982;19;20025;-62
2024/04/20 05:11:35;;;;;;;5.95;1.02;;;5.90;99.90;;;;;;7377950;19;20098;-61
2024/04/20 05:14:21;;;;;;;6.63;1.10;;;5.80;99.90;;;;;;7377431;19;20025;-62
2024/04/20 05:17:08;;;;;;;4.18;1.02;;;5.90;99.90;;;;;;7376115;19;20022;-62
2024/04/20 05:19:54;;;;;;;4.38;1.10;;;5.80;99.90;;;;;;7372550;19;20126;-61
2024/04/20 05:22:40;;;;;;;4.68;0.95;;;5.80;99.90;;;;;;7377990;19;20019;-61
2024/04/20 05:25:26;;;;;;;4.57;0.90;;;5.80;99.90;;;;;;7376434;19;20025;-62
2024/04/20 05:28:12;;;;;;;3.08;1.00;;;5.80;99.90;;;;;;7374990;19;20026;-61
2024/04/20 05:30:58;;;;;;;4.60;1.00;;;5.80;99.90;;;;;;7375825;19;20018;-61
2024/04/20 05:33:44;;;;;;;3.85;0.98;;;5.80;99.90;;;;;;7378241;19;20040;-61
2024/04/20 05:36:31;;;;;;;4.28;0.95;;;5.80;99.90;;;;;;7373185;19;20018;-61
2024/04/20 05:39:18;;;;;;;6.47;1.00;;;5.80;99.90;;;;;;7372731;19;20022;-62
2024/04/20 05:42:05;;;;;;;5.93;1.10;;;5.80;99.90;;;;;;7372547;19;20022;-58
2024/04/20 05:44:51;;;;;;;2.47;1.00;;;5.80;99.90;;;;;;7371921;19;20048;-61
2024/04/20 05:47:37;;;;;;;5.45;1.20;;;5.90;99.90;;;;;;7376076;19;20026;-62
2024/04/20 05:50:23;;;;;;;5.50;1.33;;;6.00;99.90;;;;;;7374696;19;20036;-61
2024/04/20 05:53:10;;;;;;;3.05;1.00;;;6.00;99.90;;;;;;7374180;19;20026;-62
2024/04/20 05:55:56;;;;;;;4.85;0.95;;;6.10;99.90;;;;;;7374401;19;20111;-62
2024/04/20 05:58:42;;;;;;;4.03;0.80;;;6.20;99.90;;;;;;7375979;19;20382;-62
2024/04/20 06:01:28;;;;;;;5.32;1.10;;;6.20;99.90;;;;;;7375593;19;20522;-62
2024/04/20 06:04:16;;;;;;;4.45;1.00;;;6.30;99.90;;;;;;7374352;19;20015;-62
2024/04/20 06:07:02;;;;;;;5.72;1.10;;;6.40;99.90;;;;;;7374422;19;20026;-62
2024/04/20 06:09:48;;;;;;;5.35;1.23;;;6.50;99.90;;;;;;7374807;19;20405;-62
2024/04/20 06:12:34;;;;;;;5.20;0.98;;;6.50;99.90;;;;;;7376900;19;20086;-62
2024/04/20 06:15:21;;;;;;;5.50;1.23;;;6.50;99.90;;;;;;7377101;19;20030;-62
2024/04/20 06:18:07;;;;;;;3.75;0.85;;;6.50;99.90;;;;;;7372943;19;20101;-61
2024/04/20 06:20:53;;;;;;;4.55;1.08;;;6.50;99.90;;;;;;7373283;19;20972;-59
2024/04/20 06:23:39;;;;;;;5.78;1.17;;;6.50;99.90;;;;;;7374827;19;20829;-62
2024/04/20 06:26:26;;;;;;;3.17;0.88;;;6.50;99.90;;;;;;7375147;19;20053;-61
2024/04/20 06:29:12;;;;;;;6.32;1.35;;;6.40;99.90;;;;;;7374004;19;20062;-62
2024/04/20 06:31:59;;;;;;;6.43;1.10;;;6.40;99.90;;;;;;7369293;19;20078;-61
2024/04/20 06:34:45;;;;;;;8.60;1.40;;;6.50;99.90;;;;;;7371683;19;20023;-62
2024/04/20 06:37:31;;;;;;;3.88;1.42;;;6.50;99.90;;;;;;7373518;19;20023;-61
2024/04/20 06:40:17;;;;;;;4.57;1.27;;;6.40;99.90;;;;;;7371171;19;20015;-62
2024/04/20 06:43:04;;;;;;;9.30;1.55;;;6.50;99.90;;;;;;7371887;19;20395;-62
2024/04/20 06:45:50;;;;;;;8.77;1.60;;;6.50;99.90;;;;;;7372245;19;20027;-61
2024/04/20 06:48:37;;;;;;;5.85;1.55;;;6.50;99.90;;;;;;7372583;19;20026;-62
2024/04/20 06:51:23;;;;;;;8.30;1.90;;;6.50;99.90;;;;;;7371837;19;20018;-61
2024/04/20 06:54:12;;;;;;;8.07;1.73;;;6.50;99.90;;;;;;7372770;19;20048;-62
2024/04/20 06:56:58;;;;;;;10.95;1.98;;;6.40;99.90;;;;;;7373102;19;20186;-61
2024/04/20 06:59:45;;;;;;;7.10;1.67;;;6.50;99.90;;;;;;7372312;19;20107;-61
2024/04/20 07:02:31;;;;;;;7.97;1.90;;;6.50;99.90;;;;;;7373207;19;20018;-61
2024/04/20 07:05:18;;;;;;;6.22;1.65;;;6.50;99.90;;;;;;7374117;19;20887;-62
2024/04/20 07:08:05;;;;;;;6.90;1.60;;;6.60;99.90;;;;;;7371653;19;20364;-62
2024/04/20 07:11:01;;;;;;;14.00;7.03;;;6.50;99.90;;;;;;7369810;19;20049;-61
2024/04/20 07:13:47;;;;;;;8.23;3.22;;;6.30;99.90;;;;;;7372687;19;20694;-61
2024/04/20 07:16:34;;;;;;;9.48;2.17;;;6.20;99.90;;;;;;7371458;19;20030;-60
2024/04/20 07:19:20;;;;;;;7.32;2.45;;;6.20;99.90;;;;;;7367135;19;20029;-61
2024/04/20 07:22:06;;;;;;;9.25;2.03;;;6.10;99.90;;;;;;7372177;19;20022;-61
2024/04/20 07:24:52;;;;;;;7.25;2.35;;;6.20;99.90;;;;;;7373814;19;20027;-61
2024/04/20 07:27:38;;;;;;;7.25;1.35;;;6.30;99.90;;;;;;7374261;19;20019;-62
2024/04/20 07:30:27;;;;;;;6.35;1.65;;;6.40;99.90;;;;;;7373879;19;20063;-62
2024/04/20 07:33:13;;;;;;;8.43;2.00;;;6.60;99.90;;;;;;7372435;19;20039;-62
2024/04/20 07:35:59;;;;;;;7.65;2.00;;;6.80;99.90;;;;;;7372979;19;20616;-61
2024/04/20 07:38:46;;;;;;;11.02;1.65;;;6.90;99.90;;;;;;7370911;19;20409;-62
2024/04/20 07:41:32;;;;;;;9.43;1.67;;;7.10;99.90;;;;;;7373079;19;20022;-62
2024/04/20 07:44:19;;;;;;;7.53;1.33;;;7.30;99.90;;;;;;7372609;19;20014;-62
2024/04/20 07:47:05;;;;;;;5.53;1.42;;;7.30;99.90;;;;;;7374045;19;20015;-62
2024/04/20 07:49:52;;;;;;;8.65;1.80;;;7.90;99.90;;;;;;7372302;19;20041;-63
2024/04/20 07:52:38;;;;;;;6.82;1.63;;;8.50;99.90;;;;;;7380824;19;20359;-62
2024/04/20 07:55:25;;;;;;;6.05;1.48;;;8.80;99.90;;;;;;7379771;19;20014;-63
2024/04/20 07:58:11;;;;;;;7.40;1.40;;;9.10;99.90;;;;;;7378112;19;20015;-62
2024/04/20 08:00:58;;;;;;;16.73;3.50;;;9.40;90.40;;;;;;7380444;19;20081;-62
2024/04/20 08:03:44;;;;;;;6.65;1.50;;;10.10;99.90;;;;;;7380582;19;20014;-62
2024/04/20 08:06:31;;;;;;;7.80;1.38;;;10.60;2.70;;;;;;7381302;19;20018;-63
2024/04/20 08:09:17;;;;;;;7.15;2.42;;;11.10;1.00;;;;;;7379185;19;20030;-62
2024/04/20 08:12:04;;;;;;;11.98;1.70;;;11.70;1.00;;;;;;7378336;19;20498;-62
2024/04/20 08:14:51;;;;;;;12.02;4.00;;;12.10;1.00;;;;;;7379324;19;20090;-64
2024/04/20 08:17:37;;;;;;;7.70;3.28;;;12.70;1.00;;;;;;7379305;19;20033;-65
2024/04/20 08:20:23;;;;;;;6.78;1.60;;;13.00;1.00;;;;;;7379849;19;20015;-63
2024/04/20 08:23:10;;;;;;;7.85;1.35;;;12.70;1.00;;;;;;7380463;19;20649;-62
2024/04/20 08:25:56;;;;;;;7.90;1.83;;;12.40;1.00;;;;;;7380700;19;20802;-64
2024/04/20 08:28:42;;;;;;;6.32;1.58;;;12.40;99.90;;;;;;7379440;19;20029;-63
2024/04/20 08:31:28;;;;;;;7.85;2.13;;;11.80;98.80;;;;;;7379652;19;20025;-63
2024/04/20 08:34:14;;;;;;;6.65;1.92;;;11.30;1.00;;;;;;7379095;19;20015;-63
2024/04/20 08:37:01;;;;;;;5.13;1.83;;;11.10;1.00;;;;;;7378284;19;20877;-63
2024/04/20 08:39:47;;;;;;;5.40;1.20;;;11.20;1.00;;;;;;7377512;19;20010;-64
2024/04/20 08:42:35;;;;;;;8.57;1.40;;;12.00;98.30;;;;;;7377884;19;20026;-63
2024/04/20 08:45:23;;;;;;;9.10;1.95;;;12.80;99.90;;;;;;7378218;19;20665;-63
2024/04/20 08:48:12;;;;;;;7.68;1.30;;;11.50;1.00;;;;;;7379259;19;20773;-62
2024/04/20 08:51:03;;;;;;;4.47;1.20;;;11.30;99.90;;;;;;7377995;19;20688;-62
2024/04/20 08:53:52;;;;;;;6.38;1.50;;;10.80;1.00;;;;;;7377000;19;20656;-63
2024/04/20 08:56:40;;;;;;;8.48;2.00;;;10.30;1.00;;;;;;7375886;19;20022;-63
2024/04/20 08:59:07;;;;;;;9.55;2.00;;;10.90;70.70;;;;;;7375298;19;20089;-63
2024/04/20 09:01:36;;;;;;;7.40;1.27;;;11.70;1.00;;;;;;7374247;19;20028;-63
2024/04/20 09:04:06;;;;;;;9.18;1.67;;;12.30;99.90;;;;;;7374632;19;20026;-62
2024/04/20 09:06:53;;;;;;;10.52;1.67;;;13.20;99.90;;;;;;7375721;19;20018;-62
2024/04/20 09:09:40;;;;;;;7.05;1.92;;;14.00;99.90;;;;;;7375456;19;20045;-63
2024/04/20 09:12:07;;;;;;;2.22;0.93;;;13.40;99.90;;;;;;7378000;19;20379;-63
2024/04/20 09:14:57;;;;;;;2.70;0.57;;;12.10;80.60;;;;;;7377185;19;20018;-63
2024/04/20 09:17:23;;;;;;;4.00;0.80;;;11.30;99.90;;;;;;7376977;19;20391;-64
2024/04/20 09:20:12;;;;;;;2.58;0.68;;;10.40;99.90;;;;;;7374864;19;20019;-62
2024/04/20 09:23:08;;;;;;;2.90;0.70;;;9.80;99.90;;;;;;7376066;19;20039;-62
2024/04/20 09:25:55;;;;;;;5.30;1.00;;;9.30;58.70;;;;;;7375816;19;20022;-62
2024/04/20 09:28:43;;;;;;;2.63;0.80;;;9.50;99.90;;;;;;7375988;19;20017;-62
2024/04/20 09:31:32;;;;;;;6.63;0.98;;;10.50;1.00;;;;;;7377739;19;20032;-62
2024/04/20 09:34:25;;;;;;;3.70;0.80;;;11.20;97.60;;;;;;7375783;19;20041;-62
2024/04/20 09:37:11;;;;;;;3.35;1.27;;;12.40;99.90;;;;;;7376462;19;20449;-62
2024/04/20 09:39:58;;;;;;;5.13;1.05;;;13.20;99.90;;;;;;7374161;19;20345;-63
2024/04/20 09:42:46;;;;;;;3.22;1.05;;;13.60;99.90;;;;;;7374966;19;20014;-63
2024/04/20 09:45:36;;;;;;;8.75;5.57;;;14.10;99.90;;;;;;7376800;19;20022;-63
2024/04/20 09:48:27;;;;;;;4.43;0.82;;;13.50;1.00;;;;;;7375571;19;20058;-66
2024/04/20 09:51:26;;;;;;;4.55;0.85;;;13.30;1.00;;;;;;7374125;19;20014;-63
2024/04/20 09:54:19;;;;;;;3.97;1.38;;;13.30;1.00;;;;;;7374260;19;20022;-63
2024/04/20 09:57:07;;;;;;;4.40;0.90;;;13.30;99.90;;;;;;7374726;19;20041;-64
2024/04/20 09:59:56;;;;;;;7.88;1.80;;;13.00;48.00;;;;;;7372846;19;20042;-64
2024/04/20 10:02:44;;;;;;;7.43;2.63;;;12.50;99.90;;;;;;7374775;19;20018;-64
2024/04/20 10:05:33;;;;;;;4.72;1.40;;;11.70;99.90;;;;;;7377251;19;20082;-63
2024/04/20 10:08:21;;;;;;;5.32;1.52;;;11.90;99.90;;;;;;7376721;19;20019;-63
2024/04/20 10:11:12;;;;;;;4.63;1.55;;;12.50;99.90;;;;;;7374940;19;20029;-63
2024/04/20 10:14:02;;;;;;;4.63;1.00;;;12.90;1.00;;;;;;7370949;19;20025;-63
2024/04/20 10:16:48;;;;;;;4.05;0.80;;;12.60;1.00;;;;;;7374758;19;20780;-62
2024/04/20 10:19:43;;;;;;;2.90;0.60;;;12.40;1.00;;;;;;7373938;19;20090;-64
2024/04/20 10:22:29;;;;;;;5.13;0.95;;;13.50;1.00;;;;;;7373671;19;20134;-63
2024/04/20 10:25:15;;;;;;;5.18;0.90;;;13.60;99.90;;;;;;7374179;19;20014;-63
2024/04/20 10:28:01;;;;;;;4.10;1.00;;;14.20;1.00;;;;;;7374337;19;20035;-63
2024/04/20 10:30:56;;;;;;;5.00;1.20;;;15.10;99.90;;;;;;7375218;19;20013;-64
2024/04/20 10:33:43;;;;;;;3.05;1.00;;;14.20;99.90;;;;;;7374692;19;20014;-63
2024/04/20 10:36:29;;;;;;;4.18;1.25;;;15.00;99.90;;;;;;7374977;19;20788;-64
2024/04/20 10:39:26;;;;;;;3.10;1.10;;;14.70;99.90;;;;;;7369823;19;20026;-64
2024/04/20 10:42:12;;;;;;;2.70;0.50;;;14.90;99.90;;;;;;7372046;19;20507;-64
2024/04/20 10:45:11;;;;;;;2.53;0.50;;;14.70;99.90;;;;;;7370076;19;20497;-64
2024/04/20 10:47:58;;;;;;;1.25;0.57;;;15.60;99.90;;;;;;7371243;19;20023;-62
2024/04/20 10:50:45;;;;;;;1.35;0.40;;;15.00;99.90;;;;;;7371340;19;20026;-64
2024/04/20 10:53:31;;;;;;;52.25;46.70;;;14.70;99.90;;;;;;7369468;19;20967;-65
2024/04/20 10:56:17;;;;;;;5.60;3.58;;;15.40;99.90;;;;;;7371069;19;20043;-64
2024/04/20 10:59:06;;;;;;;2.83;0.70;;;15.60;99.90;;;;;;7370204;19;20091;-64
2024/04/20 11:01:33;;;;;;;2.95;0.70;;;14.90;99.90;;;;;;7375638;19;20014;-63
2024/04/20 11:03:59;;;;;;;3.65;0.90;;;14.30;99.90;;;;;;7375240;19;20374;-64
2024/04/20 11:06:26;;;;;;;2.55;0.50;;;13.20;99.90;;;;;;7369557;19;20042;-64
2024/04/20 11:09:13;;;;;;;2.10;0.40;;;12.50;99.90;;;;;;7374859;19;20018;-64
2024/04/20 11:12:01;;;;;;;2.65;0.63;;;12.20;1.00;;;;;;7374232;19;20049;-65
2024/04/20 11:14:58;;;;;;;2.72;0.60;;;12.10;1.00;;;;;;7372267;19;20006;-64
2024/04/20 11:17:44;;;;;;;2.53;0.70;;;12.10;1.00;;;;;;7372432;19;20018;-64
2024/04/20 11:20:31;;;;;;;2.65;0.57;;;11.80;99.90;;;;;;7372213;19;20014;-64
2024/04/20 11:23:17;;;;;;;3.38;0.70;;;12.00;1.00;;;;;;7370829;19;20086;-64
2024/04/20 11:26:03;;;;;;;1.23;0.70;;;12.20;1.00;;;;;;7374806;19;20026;-64
2024/04/20 11:28:50;;;;;;;1.92;0.70;;;12.70;99.90;;;;;;7380138;19;20052;-65
2024/04/20 11:31:36;;;;;;;2.83;0.75;;;13.30;99.90;;;;;;7380161;19;20101;-65
2024/04/20 11:34:23;;;;;;;4.22;0.80;;;14.00;99.90;;;;;;7379392;19;20022;-64
2024/04/20 11:37:09;;;;;;;3.05;0.90;;;14.70;99.90;;;;;;7380411;19;20022;-65
2024/04/20 11:40:06;;;;;;;3.60;0.82;;;14.90;99.90;;;;;;7378149;19;20026;-64
2024/04/20 11:42:59;;;;;;;2.65;0.90;;;15.60;99.90;;;;;;7378556;19;20187;-64
2024/04/20 11:45:46;;;;;;;7.25;3.03;;;16.80;99.90;;;;;;7378002;19;20015;-64
2024/04/20 11:48:32;;;;;;;4.05;0.88;;;16.80;99.90;;;;;;7380424;19;20050;-65
2024/04/20 11:54:31;;;;;;;3.83;0.80;;;16.30;99.90;;;;;;7378582;19;20897;-64
2024/04/20 11:56:57;;;;;;;2.50;0.95;;;15.90;99.90;;;;;;7381042;19;20026;-64
2024/04/20 11:59:24;;;;;;;4.13;0.93;;;15.70;99.90;;;;;;7379186;19;20090;-64
2024/04/20 12:01:51;;;;;;;3.92;1.23;;;15.80;99.90;;;;;;7378793;19;20014;-63
2024/04/20 12:04:17;;;;;;;6.32;1.55;;;16.30;99.90;;;;;;7382324;19;20023;-62
2024/04/20 12:06:43;;;;;;;3.95;1.25;;;16.30;99.90;;;;;;7375004;19;20040;-62
2024/04/20 12:09:10;;;;;;;4.03;1.50;;;16.00;99.90;;;;;;7380170;19;20014;-62
2024/04/20 12:11:36;;;;;;;4.25;1.77;;;15.80;99.90;;;;;;7379379;19;20017;-62
2024/04/20 12:14:03;;;;;;;3.47;1.33;;;15.10;99.90;;;;;;7379786;19;20086;-61
2024/04/20 12:16:30;;;;;;;4.32;1.10;;;14.10;99.90;;;;;;7380006;19;20519;-62
2024/04/20 12:18:56;;;;;;;3.90;1.70;;;14.20;99.90;;;;;;7379553;19;20039;-62
2024/04/20 12:21:22;;;;;;;5.38;1.85;;;13.70;99.90;;;;;;7381303;19;20026;-62
2024/04/20 12:23:48;;;;;;;3.83;1.90;;;14.20;99.90;;;;;;7378862;19;20021;-61
2024/04/20 12:26:14;;;;;;;3.65;0.95;;;13.90;99.90;;;;;;7379970;19;20041;-62
2024/04/20 12:28:41;;;;;;;4.38;1.05;;;13.80;99.90;;;;;;7380321;19;20066;-63
2024/04/20 12:31:07;;;;;;;3.13;0.85;;;14.40;99.90;;;;;;7380848;19;20018;-63
2024/04/20 12:33:34;;;;;;;4.97;0.90;;;14.50;99.90;;;;;;7380913;19;20022;-62
2024/04/20 12:36:00;;;;;;;5.22;1.70;;;15.10;99.90;;;;;;7378089;19;20039;-62
2024/04/20 12:38:26;;;;;;;6.25;1.65;;;14.80;99.90;;;;;;7374837;19;20014;-63
2024/04/20 12:40:54;;;;;;;4.20;2.00;;;15.30;99.90;;;;;;7377400;19;20135;-64
2024/04/20 12:43:21;;;;;;;5.07;0.85;;;16.20;99.90;;;;;;7378012;19;20025;-63
2024/04/20 12:45:47;;;;;;;4.03;0.95;;;17.30;99.90;;;;;;7376965;19;20676;-62
2024/04/20 12:48:14;;;;;;;5.07;1.05;;;17.10;99.40;;;;;;7376483;19;20516;-62
2024/04/20 12:50:40;;;;;;;3.90;1.05;;;16.60;99.90;;;;;;7379982;19;20038;-61
2024/04/20 12:53:06;;;;;;;12.95;9.57;;;16.20;99.90;;;;;;7380738;19;20022;-58
2024/04/20 12:55:32;;;;;;;7.43;3.17;;;16.70;99.90;;;;;;7374546;19;20585;-57
2024/04/20 12:57:59;;;;;;;4.35;1.42;;;17.50;99.90;;;;;;7379310;19;20015;-58
2024/04/20 13:00:26;;;;;;;4.57;1.00;;;18.40;98.80;;;;;;7375719;19;20018;-58
2024/04/20 13:02:52;;;;;;;12.90;8.98;;;18.90;55.00;;;;;;7380836;19;20271;-58
2024/04/20 13:05:19;;;;;;;2.55;0.70;;;18.80;34.60;;;;;;7378051;19;20582;-60
2024/04/20 13:07:45;;;;;;;5.10;1.63;;;19.10;35.90;;;;;;7378982;19;20019;-60
2024/04/20 13:10:12;;;;;;;7.88;5.10;;;19.40;6.80;;;;;;7379143;19;20026;-59
2024/04/20 13:12:38;;;;;;;4.50;1.50;;;20.40;28.40;;;;;;7384107;19;20029;-63
2024/04/20 13:15:05;;;;;;;5.60;3.42;;;20.80;3.30;;;;;;7377757;19;20082;-67
2024/04/20 13:17:31;;;;;;;6.72;2.15;;;19.90;1.00;;;;;;7388599;19;20126;-67
2024/04/20 13:19:59;;;;;;;5.35;1.92;;;18.80;1.00;;;;;;7384328;19;20480;-66
2024/04/20 13:22:25;;;;;;;6.50;1.23;;;17.50;2.60;;;;;;7379468;19;20042;-67
2024/04/20 13:24:55;;;;;;;4.00;0.80;;;15.90;80.60;;;;;;7375293;19;20019;-66
2024/04/20 13:27:22;;;;;;;3.20;1.05;;;14.60;99.90;;;;;;7380476;19;20094;-66
2024/04/20 13:29:48;;;;;;;3.67;1.10;;;13.50;99.90;;;;;;7378453;19;20022;-66
2024/04/20 13:32:15;;;;;;;3.58;1.00;;;12.50;99.90;;;;;;7379441;19;20405;-66
2024/04/20 13:34:41;;;;;;;4.95;1.55;;;11.90;1.00;;;;;;7375339;19;20029;-66
2024/04/20 13:37:08;;;;;;;4.07;1.10;;;11.60;33.40;;;;;;7380473;19;20014;-66
2024/04/20 13:39:37;;;;;;;4.68;1.67;;;11.50;99.90;;;;;;7375115;19;20393;-62
2024/04/20 13:42:04;;;;;;;8.13;2.90;;;11.50;98.60;;;;;;7378179;19;20776;-66
2024/04/20 13:44:32;;;;;;;6.75;2.13;;;11.70;99.90;;;;;;7379424;19;20014;-66
2024/04/20 13:46:59;;;;;;;4.63;1.33;;;12.30;99.90;;;;;;7379973;19;20042;-66
2024/04/20 13:49:25;;;;;;;3.58;1.02;;;14.20;54.70;;;;;;7375002;19;20126;-65
2024/04/20 13:51:52;;;;;;;3.50;1.17;;;15.80;99.90;;;;;;7379354;19;20389;-65